sensor_id;sensor_type;location;lat;lon;timestamp;pressure;altitude;pressure_sealevel;temperature;humidity
54503;BME280;40411;50.090;21.954;2024-03-17T00:01:38;63386.94;;;13.59;90.39
54503;BME280;40411;50.090;21.954;2024-03-17T00:04:07;63437.88;;;13.48;92.12
54503;BME280;40411;50.090;21.954;2024-03-17T00:06:33;63370.66;;;13.58;90.69
54503;BME280;40411;50.090;21.954;2024-03-17T00:08:59;63369.38;;;13.52;91.08
54503;BME280;40411;50.090;21.954;2024-03-17T00:11:26;63308.66;;;13.69;90.70
54503;BME280;40411;50.090;21.954;2024-03-17T00:13:52;63418.19;;;13.54;91.25
54503;BME280;40411;50.090;21.954;2024-03-17T00:16:18;63354.97;;;13.73;89.36
54503;BME280;40411;50.090;21.954;2024-03-17T00:18:45;63346.44;;;13.70;90.75
54503;BME280;40411;50.090;21.954;2024-03-17T00:21:12;63376.97;;;13.59;89.95
54503;BME280;40411;50.090;21.954;2024-03-17T00:23:39;63543.84;;;13.24;92.89
54503;BME280;40411;50.090;21.954;2024-03-17T00:26:05;63482.69;;;13.16;92.31
54503;BME280;40411;50.090;21.954;2024-03-17T00:28:30;63468.59;;;13.17;92.69
54503;BME280;40411;50.090;21.954;2024-03-17T00:30:57;63433.75;;;13.36;92.81
54503;BME280;40411;50.090;21.954;2024-03-17T00:33:23;63383.47;;;13.51;91.84
54503;BME280;40411;50.090;21.954;2024-03-17T00:35:50;63311.16;;;13.67;91.92
54503;BME280;40411;50.090;21.954;2024-03-17T00:38:16;63195.59;;;13.91;91.59
54503;BME280;40411;50.090;21.954;2024-03-17T00:40:42;63140.31;;;14.01;91.19
54503;BME280;40411;50.090;21.954;2024-03-17T00:43:11;63333.41;;;13.58;92.66
54503;BME280;40411;50.090;21.954;2024-03-17T00:45:37;63314.09;;;13.74;91.84
54503;BME280;40411;50.090;21.954;2024-03-17T00:48:03;63305.69;;;13.74;92.27
54503;BME280;40411;50.090;21.954;2024-03-17T00:50:31;63148.81;;;14.04;90.19
54503;BME280;40411;50.090;21.954;2024-03-17T00:52:56;63287.41;;;13.76;91.48
54503;BME280;40411;50.090;21.954;2024-03-17T00:55:22;63204.13;;;13.79;92.58
54503;BME280;40411;50.090;21.954;2024-03-17T00:57:48;63247.88;;;13.71;92.91
54503;BME280;40411;50.090;21.954;2024-03-17T01:00:14;63224.91;;;13.89;92.46
54503;BME280;40411;50.090;21.954;2024-03-17T01:02:41;63173.16;;;13.95;92.13
54503;BME280;40411;50.090;21.954;2024-03-17T01:05:07;63341.81;;;13.58;94.64
54503;BME280;40411;50.090;21.954;2024-03-17T01:07:34;63082.31;;;14.08;92.78
54503;BME280;40411;50.090;21.954;2024-03-17T01:10:00;63240.44;;;13.69;93.75
54503;BME280;40411;50.090;21.954;2024-03-17T01:12:26;63245.69;;;13.69;94.81
54503;BME280;40411;50.090;21.954;2024-03-17T01:14:52;63184.00;;;13.75;94.75
54503;BME280;40411;50.090;21.954;2024-03-17T01:17:18;63186.19;;;13.77;94.96
54503;BME280;40411;50.090;21.954;2024-03-17T01:19:45;63109.13;;;13.94;94.15
54503;BME280;40411;50.090;21.954;2024-03-17T01:22:11;63020.19;;;14.19;93.16
54503;BME280;40411;50.090;21.954;2024-03-17T01:24:37;63133.00;;;13.86;95.00
54503;BME280;40411;50.090;21.954;2024-03-17T01:27:07;63113.47;;;13.83;94.40
54503;BME280;40411;50.090;21.954;2024-03-17T01:29:33;63176.59;;;13.73;95.45
54503;BME280;40411;50.090;21.954;2024-03-17T01:31:58;63231.38;;;13.51;96.99
54503;BME280;40411;50.090;21.954;2024-03-17T01:34:24;63212.41;;;13.62;96.84
54503;BME280;40411;50.090;21.954;2024-03-17T01:36:50;63048.47;;;14.01;95.59
54503;BME280;40411;50.090;21.954;2024-03-17T01:39:16;63100.97;;;13.86;95.99
54503;BME280;40411;50.090;21.954;2024-03-17T01:41:43;63052.03;;;13.97;95.03
54503;BME280;40411;50.090;21.954;2024-03-17T01:44:30;62978.41;;;14.09;95.19
54503;BME280;40411;50.090;21.954;2024-03-17T01:46:56;63161.75;;;13.69;96.55
54503;BME280;40411;50.090;21.954;2024-03-17T01:49:23;63057.09;;;13.92;95.93
54503;BME280;40411;50.090;21.954;2024-03-17T01:51:50;63083.97;;;13.95;96.17
54503;BME280;40411;50.090;21.954;2024-03-17T01:54:16;63224.78;;;13.57;97.74
54503;BME280;40411;50.090;21.954;2024-03-17T01:56:43;63078.91;;;13.85;97.49
54503;BME280;40411;50.090;21.954;2024-03-17T01:59:10;63103.69;;;13.89;96.66
54503;BME280;40411;50.090;21.954;2024-03-17T02:01:36;63143.56;;;13.59;98.52
54503;BME280;40411;50.090;21.954;2024-03-17T02:04:04;62982.41;;;14.03;96.21
54503;BME280;40411;50.090;21.954;2024-03-17T02:06:30;63012.84;;;14.02;95.96
54503;BME280;40411;50.090;21.954;2024-03-17T02:08:56;63152.34;;;13.70;97.67
54503;BME280;40411;50.090;21.954;2024-03-17T02:11:32;63233.09;;;13.55;97.70
54503;BME280;40411;50.090;21.954;2024-03-17T02:14:00;63176.88;;;13.66;97.79
54503;BME280;40411;50.090;21.954;2024-03-17T02:16:27;63171.97;;;13.61;98.23
54503;BME280;40411;50.090;21.954;2024-03-17T02:18:56;63222.22;;;13.45;98.72
54503;BME280;40411;50.090;21.954;2024-03-17T02:21:23;63173.72;;;13.66;97.82
54503;BME280;40411;50.090;21.954;2024-03-17T02:23:51;63216.88;;;13.42;99.11
54503;BME280;40411;50.090;21.954;2024-03-17T02:26:17;63363.66;;;13.15;100.00
54503;BME280;40411;50.090;21.954;2024-03-17T02:28:45;63160.66;;;13.53;99.27
54503;BME280;40411;50.090;21.954;2024-03-17T02:31:12;63195.22;;;13.51;97.66
54503;BME280;40411;50.090;21.954;2024-03-17T02:33:39;63207.88;;;13.53;97.89
54503;BME280;40411;50.090;21.954;2024-03-17T02:36:06;63111.47;;;13.71;98.28
54503;BME280;40411;50.090;21.954;2024-03-17T02:38:38;63223.97;;;13.49;99.10
54503;BME280;40411;50.090;21.954;2024-03-17T02:41:23;63208.22;;;13.49;99.11
54503;BME280;40411;50.090;21.954;2024-03-17T02:43:49;63170.06;;;13.67;97.53
54503;BME280;40411;50.090;21.954;2024-03-17T02:46:17;63135.81;;;13.77;96.34
54503;BME280;40411;50.090;21.954;2024-03-17T02:48:46;63189.59;;;13.56;98.37
54503;BME280;40411;50.090;21.954;2024-03-17T02:51:14;63291.00;;;13.33;98.75
54503;BME280;40411;50.090;21.954;2024-03-17T02:53:45;63191.25;;;13.57;98.28
54503;BME280;40411;50.090;21.954;2024-03-17T02:56:11;63204.91;;;13.58;97.78
54503;BME280;40411;50.090;21.954;2024-03-17T02:58:39;63264.44;;;13.37;98.41
54503;BME280;40411;50.090;21.954;2024-03-17T03:01:05;63252.13;;;13.31;98.48
54503;BME280;40411;50.090;21.954;2024-03-17T03:03:32;63313.50;;;13.19;98.78
54503;BME280;40411;50.090;21.954;2024-03-17T03:05:58;63182.91;;;13.59;98.00
54503;BME280;40411;50.090;21.954;2024-03-17T03:08:27;63144.94;;;13.68;96.95
54503;BME280;40411;50.090;21.954;2024-03-17T03:10:52;63137.00;;;13.66;97.82
54503;BME280;40411;50.090;21.954;2024-03-17T03:13:19;63713.59;;;12.43;96.64
54503;BME280;40411;50.090;21.954;2024-03-17T03:15:46;63817.00;;;12.27;93.27
54503;BME280;40411;50.090;21.954;2024-03-17T03:18:14;64117.47;;;11.51;92.17
54503;BME280;40411;50.090;21.954;2024-03-17T03:20:40;64405.56;;;10.58;91.53
54503;BME280;40411;50.090;21.954;2024-03-17T03:23:06;64457.34;;;10.43;92.96
54503;BME280;40411;50.090;21.954;2024-03-17T03:25:32;64399.72;;;10.64;91.35
54503;BME280;40411;50.090;21.954;2024-03-17T03:27:58;64517.47;;;10.04;93.07
54503;BME280;40411;50.090;21.954;2024-03-17T03:30:24;64416.00;;;10.74;91.00
54503;BME280;40411;50.090;21.954;2024-03-17T03:32:50;64446.78;;;10.33;93.40
54503;BME280;40411;50.090;21.954;2024-03-17T03:35:16;64367.19;;;10.70;91.25
54503;BME280;40411;50.090;21.954;2024-03-17T03:37:42;64486.53;;;10.26;94.90
54503;BME280;40411;50.090;21.954;2024-03-17T03:40:09;64551.72;;;9.78;95.64
54503;BME280;40411;50.090;21.954;2024-03-17T03:42:45;64333.25;;;10.70;93.21
54503;BME280;40411;50.090;21.954;2024-03-17T03:45:11;64319.28;;;10.99;91.04
54503;BME280;40411;50.090;21.954;2024-03-17T03:47:40;64443.19;;;10.42;92.22
54503;BME280;40411;50.090;21.954;2024-03-17T03:50:07;64393.75;;;10.61;92.38
54503;BME280;40411;50.090;21.954;2024-03-17T03:52:38;64481.28;;;10.34;93.13
54503;BME280;40411;50.090;21.954;2024-03-17T03:55:07;64436.97;;;10.50;91.53
54503;BME280;40411;50.090;21.954;2024-03-17T03:57:36;64700.47;;;9.35;94.83
54503;BME280;40411;50.090;21.954;2024-03-17T04:00:05;64544.75;;;9.91;92.89
54503;BME280;40411;50.090;21.954;2024-03-17T04:02:42;64585.69;;;9.64;92.49
54503;BME280;40411;50.090;21.954;2024-03-17T04:05:08;64545.44;;;10.01;91.17
54503;BME280;40411;50.090;21.954;2024-03-17T04:07:35;64630.31;;;9.76;91.40
54503;BME280;40411;50.090;21.954;2024-03-17T04:10:02;64610.69;;;9.56;91.80
54503;BME280;40411;50.090;21.954;2024-03-17T04:12:29;64622.16;;;9.71;91.18
54503;BME280;40411;50.090;21.954;2024-03-17T04:14:59;64670.63;;;9.56;90.13
54503;BME280;40411;50.090;21.954;2024-03-17T04:17:25;64774.56;;;9.08;90.87
54503;BME280;40411;50.090;21.954;2024-03-17T04:19:54;64675.13;;;9.53;90.73
54503;BME280;40411;50.090;21.954;2024-03-17T04:22:21;64774.03;;;8.93;92.95
54503;BME280;40411;50.090;21.954;2024-03-17T04:24:48;64722.06;;;9.24;91.64
54503;BME280;40411;50.090;21.954;2024-03-17T04:27:23;64721.13;;;9.33;92.05
54503;BME280;40411;50.090;21.954;2024-03-17T04:29:52;64738.28;;;9.17;92.55
54503;BME280;40411;50.090;21.954;2024-03-17T04:32:20;64747.06;;;8.94;94.45
54503;BME280;40411;50.090;21.954;2024-03-17T04:34:46;64709.06;;;9.17;94.12
54503;BME280;40411;50.090;21.954;2024-03-17T04:37:13;64764.16;;;8.93;95.16
54503;BME280;40411;50.090;21.954;2024-03-17T04:39:40;64662.88;;;9.27;93.70
54503;BME280;40411;50.090;21.954;2024-03-17T04:42:09;64726.94;;;9.05;95.13
54503;BME280;40411;50.090;21.954;2024-03-17T04:44:35;64755.78;;;8.86;95.12
54503;BME280;40411;50.090;21.954;2024-03-17T04:47:02;64667.78;;;9.08;95.32
54503;BME280;40411;50.090;21.954;2024-03-17T04:49:42;64695.88;;;9.14;94.95
54503;BME280;40411;50.090;21.954;2024-03-17T04:52:10;64818.63;;;8.55;95.19
54503;BME280;40411;50.090;21.954;2024-03-17T04:54:36;64747.78;;;8.69;95.13
54503;BME280;40411;50.090;21.954;2024-03-17T04:57:02;64675.53;;;9.36;92.59
54503;BME280;40411;50.090;21.954;2024-03-17T04:59:28;64710.94;;;9.00;92.65
54503;BME280;40411;50.090;21.954;2024-03-17T05:01:54;64768.25;;;8.64;93.61
54503;BME280;40411;50.090;21.954;2024-03-17T05:04:20;64682.22;;;9.43;89.08
54503;BME280;40411;50.090;21.954;2024-03-17T05:06:48;64609.47;;;9.76;87.89
54503;BME280;40411;50.090;21.954;2024-03-17T05:09:18;64674.81;;;9.33;88.40
54503;BME280;40411;50.090;21.954;2024-03-17T05:11:45;64599.63;;;9.70;88.37
54503;BME280;40411;50.090;21.954;2024-03-17T05:14:11;64657.91;;;9.75;87.26
54503;BME280;40411;50.090;21.954;2024-03-17T05:16:38;64640.22;;;9.69;86.65
54503;BME280;40411;50.090;21.954;2024-03-17T05:19:04;64652.69;;;9.75;88.18
54503;BME280;40411;50.090;21.954;2024-03-17T05:21:31;64478.53;;;10.31;85.65
54503;BME280;40411;50.090;21.954;2024-03-17T05:23:57;64534.56;;;10.11;86.30
54503;BME280;40411;50.090;21.954;2024-03-17T05:26:26;64667.19;;;9.81;88.66
54503;BME280;40411;50.090;21.954;2024-03-17T05:28:52;64635.69;;;9.40;90.28
54503;BME280;40411;50.090;21.954;2024-03-17T05:31:19;64596.38;;;9.45;91.02
54503;BME280;40411;50.090;21.954;2024-03-17T05:33:47;64636.53;;;9.60;90.34
54503;BME280;40411;50.090;21.954;2024-03-17T05:36:14;64680.00;;;9.33;91.47
54503;BME280;40411;50.090;21.954;2024-03-17T05:38:39;64614.41;;;9.50;91.78
54503;BME280;40411;50.090;21.954;2024-03-17T05:41:07;64678.47;;;9.42;91.37
54503;BME280;40411;50.090;21.954;2024-03-17T05:43:35;64690.44;;;9.33;91.93
54503;BME280;40411;50.090;21.954;2024-03-17T05:46:05;64625.72;;;9.70;90.42
54503;BME280;40411;50.090;21.954;2024-03-17T05:48:38;64648.03;;;9.76;88.86
54503;BME280;40411;50.090;21.954;2024-03-17T05:51:11;64590.66;;;9.76;89.39
54503;BME280;40411;50.090;21.954;2024-03-17T05:53:41;64559.13;;;9.80;89.59
54503;BME280;40411;50.090;21.954;2024-03-17T05:56:07;64540.00;;;10.06;89.14
54503;BME280;40411;50.090;21.954;2024-03-17T05:58:37;64615.47;;;9.65;91.57
54503;BME280;40411;50.090;21.954;2024-03-17T06:01:04;64624.28;;;9.49;91.24
54503;BME280;40411;50.090;21.954;2024-03-17T06:03:30;64562.16;;;9.78;91.35
54503;BME280;40411;50.090;21.954;2024-03-17T06:05:58;64509.13;;;9.97;90.19
54503;BME280;40411;50.090;21.954;2024-03-17T06:08:25;64529.25;;;9.94;89.89
54503;BME280;40411;50.090;21.954;2024-03-17T06:10:51;64565.13;;;9.76;91.05
54503;BME280;40411;50.090;21.954;2024-03-17T06:13:16;64605.94;;;9.71;91.04
54503;BME280;40411;50.090;21.954;2024-03-17T06:15:43;64547.59;;;9.79;91.44
54503;BME280;40411;50.090;21.954;2024-03-17T06:18:13;64360.56;;;10.64;89.17
54503;BME280;40411;50.090;21.954;2024-03-17T06:20:41;64384.50;;;10.55;88.94
54503;BME280;40411;50.090;21.954;2024-03-17T06:23:14;64329.91;;;10.84;87.37
54503;BME280;40411;50.090;21.954;2024-03-17T06:25:45;64371.47;;;10.72;86.59
54503;BME280;40411;50.090;21.954;2024-03-17T06:28:12;64432.16;;;10.65;86.92
54503;BME280;40411;50.090;21.954;2024-03-17T06:30:47;64450.19;;;10.29;88.73
54503;BME280;40411;50.090;21.954;2024-03-17T06:33:19;64440.84;;;10.54;87.37
54503;BME280;40411;50.090;21.954;2024-03-17T06:35:47;64292.50;;;11.05;85.54
54503;BME280;40411;50.090;21.954;2024-03-17T06:38:13;64303.06;;;10.98;85.67
54503;BME280;40411;50.090;21.954;2024-03-17T06:40:41;64387.13;;;10.55;88.29
54503;BME280;40411;50.090;21.954;2024-03-17T06:43:07;64455.19;;;10.34;87.44
54503;BME280;40411;50.090;21.954;2024-03-17T06:45:34;64424.34;;;10.41;88.30
54503;BME280;40411;50.090;21.954;2024-03-17T06:48:00;64417.72;;;10.52;87.26
54503;BME280;40411;50.090;21.954;2024-03-17T06:50:26;64463.03;;;10.34;87.94
54503;BME280;40411;50.090;21.954;2024-03-17T06:52:51;64501.59;;;10.09;88.14
54503;BME280;40411;50.090;21.954;2024-03-17T06:55:21;64410.78;;;10.58;86.33
54503;BME280;40411;50.090;21.954;2024-03-17T06:57:47;64305.03;;;11.05;84.42
54503;BME280;40411;50.090;21.954;2024-03-17T07:00:14;64433.38;;;10.52;86.42
54503;BME280;40411;50.090;21.954;2024-03-17T07:02:40;64507.06;;;10.28;86.49
54503;BME280;40411;50.090;21.954;2024-03-17T07:05:13;64393.31;;;10.87;84.40
54503;BME280;40411;50.090;21.954;2024-03-17T07:07:43;64251.72;;;11.40;82.67
54503;BME280;40411;50.090;21.954;2024-03-17T07:10:09;64206.25;;;11.58;81.34
54503;BME280;40411;50.090;21.954;2024-03-17T07:12:40;64472.91;;;10.74;82.02
54503;BME280;40411;50.090;21.954;2024-03-17T07:15:06;64282.28;;;11.44;80.91
54503;BME280;40411;50.090;21.954;2024-03-17T07:17:33;64328.50;;;11.22;80.54
54503;BME280;40411;50.090;21.954;2024-03-17T07:20:00;64473.31;;;10.72;81.54
54503;BME280;40411;50.090;21.954;2024-03-17T07:22:25;64326.56;;;11.15;80.05
54503;BME280;40411;50.090;21.954;2024-03-17T07:24:55;64279.47;;;11.32;80.67
54503;BME280;40411;50.090;21.954;2024-03-17T07:27:26;64336.03;;;11.16;80.49
54503;BME280;40411;50.090;21.954;2024-03-17T07:29:52;64411.59;;;10.87;79.98
54503;BME280;40411;50.090;21.954;2024-03-17T07:32:18;64433.09;;;10.81;80.12
54503;BME280;40411;50.090;21.954;2024-03-17T07:34:44;64422.97;;;10.86;79.65
54503;BME280;40411;50.090;21.954;2024-03-17T07:37:09;64626.25;;;10.09;81.38
54503;BME280;40411;50.090;21.954;2024-03-17T07:39:35;64623.03;;;10.22;80.05
54503;BME280;40411;50.090;21.954;2024-03-17T07:42:02;64571.56;;;10.25;80.54
54503;BME280;40411;50.090;21.954;2024-03-17T07:44:28;64638.81;;;9.94;80.20
54503;BME280;40411;50.090;21.954;2024-03-17T07:47:02;64633.53;;;10.08;80.40
54503;BME280;40411;50.090;21.954;2024-03-17T07:49:30;64567.16;;;10.45;79.61
54503;BME280;40411;50.090;21.954;2024-03-17T07:51:56;64377.13;;;11.30;77.03
54503;BME280;40411;50.090;21.954;2024-03-17T07:54:26;64388.22;;;11.24;76.36
54503;BME280;40411;50.090;21.954;2024-03-17T07:56:52;64222.66;;;11.71;74.01
54503;BME280;40411;50.090;21.954;2024-03-17T07:59:19;64109.59;;;12.56;72.38
54503;BME280;40411;50.090;21.954;2024-03-17T08:01:44;63869.22;;;13.63;64.82
54503;BME280;40411;50.090;21.954;2024-03-17T08:04:11;63913.25;;;13.41;68.35
54503;BME280;40411;50.090;21.954;2024-03-17T08:06:40;64164.19;;;12.67;68.87
54503;BME280;40411;50.090;21.954;2024-03-17T08:09:09;64319.25;;;12.12;67.58
54503;BME280;40411;50.090;21.954;2024-03-17T08:11:35;64539.50;;;11.35;67.63
54503;BME280;40411;50.090;21.954;2024-03-17T08:14:02;64460.84;;;11.74;67.39
54503;BME280;40411;50.090;21.954;2024-03-17T08:16:28;64525.03;;;11.46;67.81
54503;BME280;40411;50.090;21.954;2024-03-17T08:18:56;64535.78;;;11.34;67.45
54503;BME280;40411;50.090;21.954;2024-03-17T08:21:21;64586.41;;;11.33;65.55
54503;BME280;40411;50.090;21.954;2024-03-17T08:23:48;64304.63;;;12.13;63.47
54503;BME280;40411;50.090;21.954;2024-03-17T08:26:17;63976.97;;;13.47;58.75
54503;BME280;40411;50.090;21.954;2024-03-17T08:28:43;63258.94;;;15.67;53.81
54503;BME280;40411;50.090;21.954;2024-03-17T08:31:08;63106.47;;;16.24;49.95
54503;BME280;40411;50.090;21.954;2024-03-17T08:33:35;63502.88;;;15.47;49.15
54503;BME280;40411;50.090;21.954;2024-03-17T08:36:01;64253.88;;;13.65;51.82
54503;BME280;40411;50.090;21.954;2024-03-17T08:38:29;64562.16;;;12.04;57.17
54503;BME280;40411;50.090;21.954;2024-03-17T08:40:56;64769.66;;;11.21;56.85
54503;BME280;40411;50.090;21.954;2024-03-17T08:43:23;64064.09;;;13.79;49.86
54503;BME280;40411;50.090;21.954;2024-03-17T08:46:06;63954.78;;;14.87;48.43
54503;BME280;40411;50.090;21.954;2024-03-17T08:48:34;63996.25;;;14.74;48.71
54503;BME280;40411;50.090;21.954;2024-03-17T08:51:02;63719.66;;;15.08;46.16
54503;BME280;40411;50.090;21.954;2024-03-17T08:53:29;63046.72;;;16.92;43.30
54503;BME280;40411;50.090;21.954;2024-03-17T08:55:56;63940.53;;;15.45;42.02
54503;BME280;40411;50.090;21.954;2024-03-17T08:58:24;64523.41;;;13.09;48.20
54503;BME280;40411;50.090;21.954;2024-03-17T09:00:50;64434.34;;;12.92;50.84
54503;BME280;40411;50.090;21.954;2024-03-17T09:03:19;64430.13;;;12.37;56.29
54503;BME280;40411;50.090;21.954;2024-03-17T09:05:47;64587.38;;;12.23;53.67
54503;BME280;40411;50.090;21.954;2024-03-17T09:08:18;64312.94;;;13.32;51.91
54503;BME280;40411;50.090;21.954;2024-03-17T09:10:47;63382.09;;;16.14;47.03
54503;BME280;40411;50.090;21.954;2024-03-17T09:13:15;63812.75;;;14.60;48.94
54503;BME280;40411;50.090;21.954;2024-03-17T09:15:50;64248.19;;;13.77;50.64
54503;BME280;40411;50.090;21.954;2024-03-17T09:18:16;64354.44;;;13.15;52.58
54503;BME280;40411;50.090;21.954;2024-03-17T09:20:42;64466.03;;;12.51;57.12
54503;BME280;40411;50.090;21.954;2024-03-17T09:23:08;64163.56;;;13.64;56.13
54503;BME280;40411;50.090;21.954;2024-03-17T09:25:35;64493.75;;;12.77;53.14
54503;BME280;40411;50.090;21.954;2024-03-17T09:28:00;64578.53;;;12.58;53.19
54503;BME280;40411;50.090;21.954;2024-03-17T09:30:26;64737.09;;;11.82;53.22
54503;BME280;40411;50.090;21.954;2024-03-17T09:32:53;64715.13;;;11.98;52.05
54503;BME280;40411;50.090;21.954;2024-03-17T09:35:19;64257.88;;;13.71;49.62
54503;BME280;40411;50.090;21.954;2024-03-17T09:37:45;64265.47;;;13.66;53.51
54503;BME280;40411;50.090;21.954;2024-03-17T09:40:14;64370.09;;;13.41;51.59
54503;BME280;40411;50.090;21.954;2024-03-17T09:42:41;64706.16;;;11.97;55.65
54503;BME280;40411;50.090;21.954;2024-03-17T09:45:10;64465.19;;;12.02;55.40
54503;BME280;40411;50.090;21.954;2024-03-17T09:47:36;63615.50;;;15.34;46.36
54503;BME280;40411;50.090;21.954;2024-03-17T09:50:02;63391.53;;;16.13;43.93
54503;BME280;40411;50.090;21.954;2024-03-17T09:52:33;63880.06;;;15.70;41.48
54503;BME280;40411;50.090;21.954;2024-03-17T09:55:01;64584.72;;;13.17;46.43
54503;BME280;40411;50.090;21.954;2024-03-17T09:57:39;64638.38;;;12.94;45.62
54503;BME280;40411;50.090;21.954;2024-03-17T10:00:13;64518.47;;;13.14;45.81
54503;BME280;40411;50.090;21.954;2024-03-17T10:02:43;63838.59;;;15.24;42.18
54503;BME280;40411;50.090;21.954;2024-03-17T10:05:25;63234.19;;;16.85;41.45
54503;BME280;40411;50.090;21.954;2024-03-17T10:07:51;64124.59;;;14.98;42.37
54503;BME280;40411;50.090;21.954;2024-03-17T10:10:18;63597.63;;;16.03;42.86
54503;BME280;40411;50.090;21.954;2024-03-17T10:12:52;63426.47;;;16.65;40.40
54503;BME280;40411;50.090;21.954;2024-03-17T10:15:19;63718.16;;;16.15;38.17
54503;BME280;40411;50.090;21.954;2024-03-17T10:17:46;64373.03;;;14.63;39.28
54503;BME280;40411;50.090;21.954;2024-03-17T10:20:19;64572.69;;;13.35;43.48
54503;BME280;40411;50.090;21.954;2024-03-17T10:22:59;64797.69;;;12.52;44.86
54503;BME280;40411;50.090;21.954;2024-03-17T10:25:26;64811.00;;;12.00;47.40
54503;BME280;40411;50.090;21.954;2024-03-17T10:27:54;64873.88;;;11.93;46.79
54503;BME280;40411;50.090;21.954;2024-03-17T10:30:20;64916.13;;;11.45;46.58
54503;BME280;40411;50.090;21.954;2024-03-17T10:33:07;64956.38;;;11.68;45.17
54503;BME280;40411;50.090;21.954;2024-03-17T10:35:37;64775.25;;;11.50;47.72
54503;BME280;40411;50.090;21.954;2024-03-17T10:38:09;64629.19;;;12.64;44.65
54503;BME280;40411;50.090;21.954;2024-03-17T10:40:35;64403.13;;;13.60;43.77
54503;BME280;40411;50.090;21.954;2024-03-17T10:43:05;64098.97;;;14.80;39.69
54503;BME280;40411;50.090;21.954;2024-03-17T10:45:32;63853.31;;;15.72;38.87
54503;BME280;40411;50.090;21.954;2024-03-17T10:48:06;63869.53;;;15.57;40.54
54503;BME280;40411;50.090;21.954;2024-03-17T10:50:37;64828.22;;;12.71;41.77
54503;BME280;40411;50.090;21.954;2024-03-17T10:53:07;64620.56;;;12.94;41.70
54503;BME280;40411;50.090;21.954;2024-03-17T10:55:44;64415.69;;;13.79;40.30
54503;BME280;40411;50.090;21.954;2024-03-17T10:58:23;64120.63;;;14.92;39.77
54503;BME280;40411;50.090;21.954;2024-03-17T11:00:53;64037.66;;;15.06;40.72
54503;BME280;40411;50.090;21.954;2024-03-17T11:03:19;64204.94;;;14.75;38.76
54503;BME280;40411;50.090;21.954;2024-03-17T11:05:47;64116.81;;;15.01;39.25
54503;BME280;40411;50.090;21.954;2024-03-17T11:08:15;63629.25;;;16.18;39.72
54503;BME280;40411;50.090;21.954;2024-03-17T11:10:49;63201.78;;;17.32;38.52
54503;BME280;40411;50.090;21.954;2024-03-17T11:13:23;63146.13;;;17.41;37.53
54503;BME280;40411;50.090;21.954;2024-03-17T11:15:50;64371.78;;;14.50;41.38
54503;BME280;40411;50.090;21.954;2024-03-17T11:21:07;64847.38;;;12.12;44.61
54503;BME280;40411;50.090;21.954;2024-03-17T11:23:38;64774.41;;;12.17;45.87
54503;BME280;40411;50.090;21.954;2024-03-17T11:26:05;64717.44;;;12.51;46.83
54503;BME280;40411;50.090;21.954;2024-03-17T11:31:47;65067.66;;;10.92;47.50
54503;BME280;40411;50.090;21.954;2024-03-17T11:34:34;64503.25;;;13.05;44.96
54503;BME280;40411;50.090;21.954;2024-03-17T11:37:02;64451.72;;;13.66;42.16
54503;BME280;40411;50.090;21.954;2024-03-17T11:39:52;64813.28;;;12.19;46.29
54503;BME280;40411;50.090;21.954;2024-03-17T11:42:29;64837.94;;;11.65;48.56
54503;BME280;40411;50.090;21.954;2024-03-17T11:45:04;64884.31;;;11.93;46.24
54503;BME280;40411;50.090;21.954;2024-03-17T11:47:37;64889.84;;;11.67;47.31
54503;BME280;40411;50.090;21.954;2024-03-17T11:50:06;65029.75;;;10.96;46.90
54503;BME280;40411;50.090;21.954;2024-03-17T11:52:33;65079.41;;;10.82;47.87
54503;BME280;40411;50.090;21.954;2024-03-17T11:54:59;65017.25;;;10.82;49.61
54503;BME280;40411;50.090;21.954;2024-03-17T11:57:25;65002.47;;;11.24;48.77
54503;BME280;40411;50.090;21.954;2024-03-17T11:59:54;65037.22;;;10.91;50.11
54503;BME280;40411;50.090;21.954;2024-03-17T12:02:25;65004.38;;;10.99;50.30
54503;BME280;40411;50.090;21.954;2024-03-17T12:04:54;65029.56;;;10.72;50.35
54503;BME280;40411;50.090;21.954;2024-03-17T12:07:23;64894.50;;;11.35;51.69
54503;BME280;40411;50.090;21.954;2024-03-17T12:09:50;65015.00;;;11.09;48.78
54503;BME280;40411;50.090;21.954;2024-03-17T12:12:29;64999.66;;;11.14;49.78
54503;BME280;40411;50.090;21.954;2024-03-17T12:15:03;65012.63;;;10.76;49.92
54503;BME280;40411;50.090;21.954;2024-03-17T12:17:31;65129.94;;;9.90;51.27
54503;BME280;40411;50.090;21.954;2024-03-17T12:19:57;65104.44;;;9.97;53.23
54503;BME280;40411;50.090;21.954;2024-03-17T12:22:24;65071.50;;;10.17;52.65
54503;BME280;40411;50.090;21.954;2024-03-17T12:24:53;65051.41;;;10.35;52.61
54503;BME280;40411;50.090;21.954;2024-03-17T12:27:20;65131.59;;;9.84;52.05
54503;BME280;40411;50.090;21.954;2024-03-17T12:29:55;65106.25;;;9.80;53.86
54503;BME280;40411;50.090;21.954;2024-03-17T12:32:23;65107.66;;;10.26;52.20
54503;BME280;40411;50.090;21.954;2024-03-17T12:34:54;65141.44;;;9.76;52.70
54503;BME280;40411;50.090;21.954;2024-03-17T12:37:22;65067.25;;;10.30;52.64
54503;BME280;40411;50.090;21.954;2024-03-17T12:39:50;64950.28;;;10.73;52.64
54503;BME280;40411;50.090;21.954;2024-03-17T12:42:23;65110.22;;;9.98;52.02
54503;BME280;40411;50.090;21.954;2024-03-17T12:44:57;65066.66;;;10.15;53.22
54503;BME280;40411;50.090;21.954;2024-03-17T12:47:27;64951.69;;;11.08;52.82
54503;BME280;40411;50.090;21.954;2024-03-17T12:49:58;65055.53;;;10.48;51.63
54503;BME280;40411;50.090;21.954;2024-03-17T12:52:32;64971.75;;;10.81;51.36
54503;BME280;40411;50.090;21.954;2024-03-17T12:54:59;65034.25;;;10.57;51.56
54503;BME280;40411;50.090;21.954;2024-03-17T12:57:44;65026.78;;;10.48;52.01
54503;BME280;40411;50.090;21.954;2024-03-17T13:00:29;65059.59;;;10.33;51.31
54503;BME280;40411;50.090;21.954;2024-03-17T13:03:00;64977.13;;;10.91;51.84
54503;BME280;40411;50.090;21.954;2024-03-17T13:05:26;65007.75;;;10.81;49.18